Time;durP1;ratioP1;P1;durP2;ratioP2;P2;SDS_P1;SDS_P2;PMS_P1;PMS_P2;Temp;Humidity;BMP_temperature;BMP_pressure;BME280_temperature;BME280_humidity;BME280_pressure;Samples;Min_cycle;Max_cycle;Signal;HPM_P1;HPM_P2
2022/12/30 00:01:40;;;;;;;15.77;9.00;;;;;;;6.25;100.00;99979.59;5072766;28;20028;-76
2022/12/30 00:04:06;;;;;;;17.38;9.02;;;;;;;6.17;100.00;99979.13;5072911;28;20025;-78
2022/12/30 00:06:38;;;;;;;16.15;9.18;;;;;;;6.15;100.00;99986.53;5072966;28;20039;-79
2022/12/30 00:09:03;;;;;;;16.63;8.95;;;;;;;6.11;100.00;99980.22;5073354;28;20054;-77
2022/12/30 00:11:31;;;;;;;17.73;9.10;;;;;;;6.10;100.00;99993.59;5055767;28;20108;-77
2022/12/30 00:34:09;;;;;;;14.90;10.10;;;;;;;5.74;100.00;99977.31;5058573;28;20040;-77
2022/12/30 00:36:36;;;;;;;18.02;9.35;;;;;;;5.70;100.00;99984.34;5039650;28;20032;-78
2022/12/30 00:39:02;;;;;;;16.25;10.10;;;;;;;5.70;100.00;99985.16;5073415;28;20036;-78
2022/12/30 00:44:14;;;;;;;17.95;10.10;;;;;;;5.69;100.00;99988.47;5058769;28;20039;-78
2022/12/30 00:46:40;;;;;;;14.88;8.80;;;;;;;5.67;100.00;99999.47;5075128;28;20025;-78
2022/12/30 00:57:21;;;;;;;17.55;10.40;;;;;;;5.59;100.00;100001.81;5062638;28;20039;-77
2022/12/30 00:59:47;;;;;;;19.27;10.43;;;;;;;5.60;100.00;99997.72;5042839;28;20032;-77
2022/12/30 01:02:28;;;;;;;15.82;10.80;;;;;;;5.60;100.00;99999.75;5077147;28;20035;-76
2022/12/30 01:04:59;;;;;;;14.85;9.40;;;;;;;5.56;100.00;99999.91;5075896;28;20459;-77
2022/12/30 01:07:46;;;;;;;16.52;9.90;;;;;;;5.55;100.00;100006.81;5076288;28;20367;-78
2022/12/30 01:10:24;;;;;;;17.85;10.90;;;;;;;5.54;100.00;100010.94;5076214;28;20109;-77
2022/12/30 01:12:49;;;;;;;16.38;8.85;;;;;;;5.57;100.00;100012.03;5075957;28;20370;-78
2022/12/30 01:15:24;;;;;;;22.73;10.93;;;;;;;5.54;100.00;100005.25;5076031;28;20114;-78
2022/12/30 01:17:49;;;;;;;18.75;10.23;;;;;;;5.58;100.00;100022.13;5058059;28;20031;-76
2022/12/30 01:20:36;;;;;;;17.95;10.25;;;;;;;5.54;100.00;100019.44;5057070;28;20044;-78
2022/12/30 01:23:02;;;;;;;16.90;9.70;;;;;;;5.53;100.00;100020.69;5075932;28;20043;-76
2022/12/30 01:25:27;;;;;;;17.92;11.02;;;;;;;5.48;100.00;100015.63;5076034;28;20048;-77
2022/12/30 01:27:58;;;;;;;17.73;10.23;;;;;;;5.55;100.00;100023.06;5075710;28;20476;-76
2022/12/30 01:30:23;;;;;;;26.95;10.77;;;;;;;5.57;100.00;100020.53;5075896;28;20025;-77
2022/12/30 01:32:50;;;;;;;17.60;10.02;;;;;;;5.55;100.00;100025.88;5075009;28;20039;-77
2022/12/30 01:35:17;;;;;;;19.13;10.55;;;;;;;5.59;100.00;100032.19;5059158;28;20054;-76
2022/12/30 01:37:43;;;;;;;16.48;9.93;;;;;;;5.57;100.00;100027.00;5076848;28;20467;-79
2022/12/30 01:40:10;;;;;;;19.15;9.88;;;;;;;5.61;100.00;100026.84;5076652;28;20032;-75
2022/12/30 01:42:41;;;;;;;17.73;10.05;;;;;;;5.62;100.00;100031.25;5076581;28;20488;-76
2022/12/30 01:45:16;;;;;;;16.67;10.35;;;;;;;5.65;100.00;100038.81;5058902;28;20032;-76
2022/12/30 01:48:03;;;;;;;18.02;9.82;;;;;;;5.68;100.00;100040.75;5076908;28;20025;-77
2022/12/30 01:50:33;;;;;;;18.90;9.73;;;;;;;5.72;100.00;100042.16;5058642;28;20029;-77
2022/12/30 01:53:05;;;;;;;18.52;11.10;;;;;;;5.78;100.00;100048.81;5059117;28;20051;-76
2022/12/30 01:55:36;;;;;;;16.10;9.95;;;;;;;5.86;100.00;100049.31;5076289;28;20049;-77
2022/12/30 01:58:04;;;;;;;16.52;9.50;;;;;;;5.83;100.00;100058.75;5057958;28;20024;-77
2022/12/30 02:00:30;;;;;;;20.40;10.82;;;;;;;5.85;100.00;100061.91;5042051;28;20114;-77
2022/12/30 02:03:04;;;;;;;17.77;10.32;;;;;;;5.91;100.00;100053.56;5058201;28;20024;-77
2022/12/30 02:05:39;;;;;;;19.05;10.32;;;;;;;5.93;100.00;100046.19;5076288;28;20025;-79
2022/12/30 02:08:15;;;;;;;21.00;10.70;;;;;;;5.94;100.00;100053.44;5076394;28;20111;-77
2022/12/30 02:10:49;;;;;;;17.02;10.18;;;;;;;5.96;100.00;100056.59;5076070;28;20032;-78
2022/12/30 02:13:17;;;;;;;16.67;11.15;;;;;;;5.94;100.00;100059.13;5042064;28;20035;-76
2022/12/30 02:16:21;;;;;;;16.92;9.57;;;;;;;6.00;100.00;100060.06;5075851;28;20039;-78
2022/12/30 02:19:27;;;;;;;16.05;9.02;;;;;;;6.07;100.00;100054.13;4975280;28;20046;-79
2022/12/30 02:22:15;;;;;;;17.13;10.45;;;;;;;6.10;100.00;100047.50;5075990;28;20032;-77
2022/12/30 02:25:13;;;;;;;17.08;9.02;;;;;;;6.17;100.00;100038.69;5075656;28;20032;-77
2022/12/30 02:28:04;;;;;;;16.92;9.30;;;;;;;6.21;100.00;100059.19;5075974;28;20086;-77
2022/12/30 02:31:09;;;;;;;15.20;9.70;;;;;;;6.25;100.00;100070.38;5076239;28;20035;-77
2022/12/30 02:33:45;;;;;;;19.08;10.18;;;;;;;6.31;100.00;100077.06;5076360;28;20037;-78
2022/12/30 02:36:21;;;;;;;15.10;9.68;;;;;;;6.35;100.00;100083.38;5044449;28;20052;-78
2022/12/30 02:39:13;;;;;;;14.07;9.07;;;;;;;6.38;100.00;100088.13;5085406;28;20060;-76
2022/12/30 02:45:10;;;;;;;15.70;8.80;;;;;;;6.40;100.00;100076.28;5078456;28;19919;-77
2022/12/30 02:47:52;;;;;;;17.23;9.07;;;;;;;6.40;100.00;100079.91;5073756;28;20067;-76
2022/12/30 02:53:09;;;;;;;24.08;9.00;;;;;;;6.44;100.00;100074.88;5061144;28;20786;-77
2022/12/30 02:55:35;;;;;;;17.48;9.95;;;;;;;6.41;100.00;100058.78;5040842;28;20525;-76
2022/12/30 02:58:02;;;;;;;18.02;9.98;;;;;;;6.42;100.00;100051.88;5074981;28;20466;-77
2022/12/30 03:03:59;;;;;;;14.32;9.30;;;;;;;6.47;100.00;100076.00;4953320;29;20527;-78
2022/12/30 03:07:03;;;;;;;17.80;9.07;;;;;;;6.44;100.00;100080.53;4953541;29;20031;-78
2022/12/30 03:12:59;;;;;;;14.70;9.82;;;;;;;6.45;100.00;100096.31;5031689;28;20588;-78
2022/12/30 03:15:30;;;;;;;15.40;9.20;;;;;;;6.45;100.00;100095.53;5051280;28;20132;-77
2022/12/30 03:18:18;;;;;;;17.80;10.30;;;;;;;6.42;100.00;100102.94;5055514;28;20094;-78
2022/12/30 03:20:45;;;;;;;16.95;8.60;;;;;;;6.37;100.00;100106.41;5055443;28;20027;-77
2022/12/30 03:29:25;;;;;;;15.38;7.28;;;;;;;6.48;100.00;100108.81;5058504;28;20536;-78
2022/12/30 03:31:52;;;;;;;14.23;7.88;;;;;;;6.51;100.00;100105.00;5056086;28;20039;-77
2022/12/30 03:34:39;;;;;;;12.13;7.63;;;;;;;6.52;100.00;100109.44;5056336;28;20496;-76
2022/12/30 03:37:17;;;;;;;14.07;7.88;;;;;;;6.50;100.00;100114.78;5073794;28;20379;-76
2022/12/30 03:39:50;;;;;;;15.70;8.25;;;;;;;6.52;100.00;100121.56;5074210;28;20579;-77
2022/12/30 03:42:16;;;;;;;12.43;7.68;;;;;;;6.57;100.00;100123.00;5056154;28;20025;-77
2022/12/30 03:44:44;;;;;;;14.63;7.25;;;;;;;6.58;100.00;100127.44;5040027;28;20028;-77
2022/12/30 03:47:12;;;;;;;13.02;7.93;;;;;;;6.59;100.00;100131.81;5039586;28;20056;-77
2022/12/30 03:49:41;;;;;;;13.05;6.93;;;;;;;6.61;100.00;100138.63;5074061;28;20024;-78
2022/12/30 03:52:07;;;;;;;16.42;7.55;;;;;;;6.65;100.00;100127.91;5074257;28;20054;-76
2022/12/30 03:54:35;;;;;;;13.40;7.03;;;;;;;6.70;100.00;100128.53;5073865;28;20043;-76
2022/12/30 03:57:00;;;;;;;12.40;7.38;;;;;;;6.72;100.00;100132.50;5073840;28;20012;-76
2022/12/30 03:59:27;;;;;;;13.98;6.65;;;;;;;6.77;100.00;100123.34;5073802;28;20549;-77
2022/12/30 04:01:55;;;;;;;10.57;6.53;;;;;;;6.82;100.00;100125.56;5055993;28;20044;-75
2022/12/30 04:04:21;;;;;;;13.85;6.93;;;;;;;6.81;100.00;100126.84;5073708;28;20029;-76
2022/12/30 04:06:48;;;;;;;12.23;6.97;;;;;;;6.81;100.00;100128.88;5074250;28;20063;-76
2022/12/30 04:09:16;;;;;;;12.73;6.43;;;;;;;6.84;100.00;100137.25;5073949;28;20025;-77
2022/12/30 04:11:42;;;;;;;10.50;6.57;;;;;;;6.85;100.00;100133.13;5073965;28;20013;-77
2022/12/30 04:14:08;;;;;;;10.90;6.47;;;;;;;6.88;100.00;100142.78;5074189;28;20506;-77
2022/12/30 04:16:34;;;;;;;7.50;5.90;;;;;;;6.88;100.00;100156.97;5073766;28;20013;-76
2022/12/30 04:19:00;;;;;;;10.73;6.00;;;;;;;6.91;100.00;100153.19;5073594;28;20134;-76
2022/12/30 04:21:27;;;;;;;9.52;5.55;;;;;;;6.89;100.00;100142.28;5072520;28;20032;-78
2022/12/30 04:23:54;;;;;;;10.70;5.65;;;;;;;6.91;100.00;100147.50;5055602;28;20519;-77
2022/12/30 04:26:19;;;;;;;11.77;6.47;;;;;;;6.90;100.00;100149.56;5055599;28;20037;-77
2022/12/30 04:28:45;;;;;;;10.15;6.40;;;;;;;6.88;100.00;100162.66;5073392;28;20374;-76
2022/12/30 04:31:11;;;;;;;9.93;5.88;;;;;;;6.82;100.00;100162.50;5056230;28;20056;-77
2022/12/30 04:33:38;;;;;;;11.52;6.15;;;;;;;6.82;100.00;100168.19;5055509;28;20036;-78
2022/12/30 04:36:06;;;;;;;10.93;5.75;;;;;;;6.78;100.00;100155.38;5073129;28;20055;-77
2022/12/30 04:38:36;;;;;;;9.18;5.43;;;;;;;6.79;100.00;100176.81;5055426;28;20029;-77
2022/12/30 04:41:01;;;;;;;11.70;5.63;;;;;;;6.78;100.00;100180.94;5039818;28;20048;-76
2022/12/30 04:43:28;;;;;;;8.88;5.47;;;;;;;6.79;100.00;100193.84;5062462;28;20071;-76
2022/12/30 04:45:54;;;;;;;8.80;5.70;;;;;;;6.81;100.00;100197.03;5055473;28;20028;-78
2022/12/30 04:48:20;;;;;;;8.38;5.60;;;;;;;6.82;100.00;100190.09;5054833;28;20040;-77
2022/12/30 04:50:48;;;;;;;12.10;5.68;;;;;;;6.82;100.00;100188.06;5073734;28;20023;-77
2022/12/30 04:53:14;;;;;;;9.90;5.25;;;;;;;6.87;100.00;100206.53;5038889;28;20028;-74
2022/12/30 04:55:41;;;;;;;7.85;4.78;;;;;;;6.88;100.00;100199.59;5072218;28;20075;-77
2022/12/30 04:58:08;;;;;;;11.52;6.18;;;;;;;6.87;100.00;100207.31;5073440;28;20549;-76
2022/12/30 05:00:35;;;;;;;10.80;5.85;;;;;;;6.86;100.00;100219.13;5055797;28;20037;-75
2022/12/30 05:03:02;;;;;;;8.63;5.20;;;;;;;6.85;100.00;100215.50;5055589;28;20052;-75
2022/12/30 05:05:28;;;;;;;9.57;5.43;;;;;;;6.84;100.00;100221.63;5073370;28;20036;-75
2022/12/30 05:07:55;;;;;;;8.18;5.45;;;;;;;6.87;100.00;100229.25;5073335;28;20029;-75
2022/12/30 05:10:21;;;;;;;9.75;5.85;;;;;;;6.88;100.00;100231.59;5072992;28;20031;-76
2022/12/30 05:12:49;;;;;;;10.48;5.78;;;;;;;6.90;100.00;100239.66;5032762;28;20132;-76
2022/12/30 05:15:15;;;;;;;15.27;6.80;;;;;;;6.90;100.00;100246.13;5073158;28;20021;-76
2022/12/30 05:17:41;;;;;;;11.10;6.18;;;;;;;6.90;100.00;100248.16;5055114;28;20052;-75
2022/12/30 05:20:06;;;;;;;11.05;5.32;;;;;;;6.86;100.00;100253.22;5038558;28;20110;-75
2022/12/30 05:22:32;;;;;;;12.43;6.88;;;;;;;6.84;100.00;100265.03;5049012;28;20025;-76
2022/12/30 05:27:43;;;;;;;9.98;5.97;;;;;;;6.79;100.00;100267.69;5038519;28;20044;-75
2022/12/30 05:30:10;;;;;;;8.77;6.10;;;;;;;6.74;100.00;100262.63;5052367;28;20036;-75
2022/12/30 05:32:36;;;;;;;9.10;6.13;;;;;;;6.86;100.00;100281.63;5054121;28;20056;-75
2022/12/30 05:35:03;;;;;;;10.43;6.10;;;;;;;6.90;100.00;100279.41;5038885;28;20106;-75
2022/12/30 05:37:28;;;;;;;9.40;6.07;;;;;;;6.89;100.00;100278.63;5056536;28;20504;-76
2022/12/30 05:39:55;;;;;;;10.50;5.78;;;;;;;6.87;100.00;100283.22;5056893;28;20033;-76
2022/12/30 05:42:21;;;;;;;9.38;5.68;;;;;;;6.86;100.00;100282.41;5056595;28;20025;-79
2022/12/30 05:44:46;;;;;;;10.63;6.57;;;;;;;6.88;100.00;100288.41;5022765;28;20031;-82
2022/12/30 05:47:13;;;;;;;11.20;6.43;;;;;;;6.91;100.00;100293.16;5056109;28;20041;-81
2022/12/30 05:49:41;;;;;;;10.27;6.80;;;;;;;6.93;100.00;100293.47;5038928;28;20516;-79
2022/12/30 05:52:07;;;;;;;9.73;6.30;;;;;;;6.93;100.00;100296.31;5038558;28;20025;-80
2022/12/30 05:54:34;;;;;;;10.00;5.95;;;;;;;6.92;100.00;100296.78;5056455;28;20384;-80
2022/12/30 05:57:00;;;;;;;10.60;6.40;;;;;;;6.89;100.00;100304.19;5056580;28;20051;-80
2022/12/30 05:59:27;;;;;;;10.40;6.50;;;;;;;6.87;100.00;100308.78;5055671;28;20120;-80
2022/12/30 06:01:53;;;;;;;8.80;5.47;;;;;;;6.86;100.00;100312.84;5056532;28;20489;-79
2022/12/30 06:04:20;;;;;;;12.27;6.43;;;;;;;6.76;100.00;100302.72;5055099;28;20043;-79
2022/12/30 06:06:47;;;;;;;10.07;5.90;;;;;;;6.81;100.00;100311.44;5055867;28;20052;-79
2022/12/30 06:09:15;;;;;;;9.60;5.72;;;;;;;6.79;100.00;100315.97;5056316;28;20060;-80
2022/12/30 06:11:41;;;;;;;11.85;6.10;;;;;;;6.76;100.00;100317.72;5056629;28;20028;-80
2022/12/30 06:14:09;;;;;;;16.65;5.55;;;;;;;6.76;100.00;100316.91;5055768;28;20097;-81
2022/12/30 06:16:35;;;;;;;9.65;5.78;;;;;;;6.73;100.00;100320.69;5021686;28;20102;-81
2022/12/30 06:19:01;;;;;;;13.77;6.57;;;;;;;6.65;100.00;100320.97;5055940;28;20536;-79
2022/12/30 06:21:27;;;;;;;10.23;6.63;;;;;;;6.48;100.00;100316.78;5066387;28;20079;-79
2022/12/30 06:23:54;;;;;;;13.57;6.55;;;;;;;6.31;100.00;100323.94;5075828;28;20028;-78
2022/12/30 06:26:21;;;;;;;11.50;6.25;;;;;;;6.13;100.00;100323.78;5075416;28;20032;-78
2022/12/30 06:28:46;;;;;;;10.32;6.35;;;;;;;5.98;100.00;100323.50;5075650;28;20123;-79
2022/12/30 06:31:11;;;;;;;14.90;8.43;;;;;;;5.87;100.00;100327.97;5075366;28;20060;-79
2022/12/30 06:33:38;;;;;;;9.57;5.97;;;;;;;5.74;100.00;100333.72;5058420;28;20059;-79
2022/12/30 06:36:04;;;;;;;12.55;6.53;;;;;;;5.62;100.00;100340.19;5068074;28;20047;-81
2022/12/30 06:38:30;;;;;;;14.02;6.35;;;;;;;5.51;100.00;100346.22;5075387;28;20033;-80
2022/12/30 06:40:56;;;;;;;11.05;6.68;;;;;;;5.41;100.00;100353.06;5057927;28;20028;-81
2022/12/30 06:43:22;;;;;;;11.32;6.10;;;;;;;5.31;100.00;100348.53;5075976;28;20139;-86
2022/12/30 06:45:47;;;;;;;14.88;7.20;;;;;;;5.26;100.00;100358.41;5074637;28;20512;-82
2022/12/30 06:48:13;;;;;;;18.33;7.82;;;;;;;5.17;100.00;100349.81;5082107;28;20020;-79
2022/12/30 06:50:38;;;;;;;15.52;6.85;;;;;;;5.20;100.00;100356.63;5075097;28;20032;-79
2022/12/30 06:53:05;;;;;;;17.90;7.25;;;;;;;5.19;100.00;100355.81;5071971;28;20037;-83
2022/12/30 06:55:31;;;;;;;23.55;7.47;;;;;;;5.20;100.00;100368.72;5092020;28;20049;-84
2022/12/30 06:57:57;;;;;;;14.73;8.13;;;;;;;5.28;100.00;100380.63;5066574;28;20043;-83
2022/12/30 07:00:24;;;;;;;13.70;7.78;;;;;;;5.32;100.00;100379.25;5079791;28;20032;-87
2022/12/30 07:02:50;;;;;;;15.00;7.53;;;;;;;5.32;100.00;100373.59;5075964;28;20480;-85
2022/12/30 07:05:16;;;;;;;20.35;7.90;;;;;;;5.43;100.00;100387.41;5057734;28;20028;-82
2022/12/30 07:07:42;;;;;;;16.30;9.27;;;;;;;5.44;100.00;100393.88;5076102;28;20028;-85
2022/12/30 07:10:09;;;;;;;23.77;8.73;;;;;;;5.46;100.00;100406.31;5075313;28;20043;-83
2022/12/30 07:12:36;;;;;;;16.67;9.10;;;;;;;5.41;100.00;100404.06;5075036;28;20030;-85
2022/12/30 07:15:03;;;;;;;18.27;8.70;;;;;;;5.32;100.00;100399.09;5057219;28;20063;-86
2022/12/30 07:17:28;;;;;;;14.13;8.30;;;;;;;5.31;100.00;100408.81;5075090;28;20028;-85
2022/12/30 07:19:54;;;;;;;20.85;8.70;;;;;;;5.27;100.00;100413.81;5040161;28;20032;-85
2022/12/30 07:22:21;;;;;;;13.38;8.18;;;;;;;5.24;100.00;100422.44;5056841;28;20107;-85
2022/12/30 07:24:47;;;;;;;14.10;8.32;;;;;;;5.23;100.00;100427.31;5074494;28;20388;-86
2022/12/30 07:27:15;;;;;;;13.77;7.00;;;;;;;5.26;100.00;100425.59;5074853;28;20427;-81
2022/12/30 07:29:40;;;;;;;14.43;7.90;;;;;;;5.21;100.00;100423.34;5074826;28;20119;-82
2022/12/30 07:32:15;;;;;;;16.00;9.23;;;;;;;5.26;100.00;100428.44;5074644;28;20064;-85
2022/12/30 07:34:41;;;;;;;20.90;9.18;;;;;;;5.28;100.00;100431.63;5074550;28;20027;-83
2022/12/30 07:37:08;;;;;;;22.30;10.38;;;;;;;5.27;100.00;100441.34;5074424;28;20069;-84
2022/12/30 07:39:36;;;;;;;20.67;10.90;;;;;;;5.22;100.00;100444.75;5056853;28;20366;-85
2022/12/30 07:42:02;;;;;;;22.15;9.57;;;;;;;5.21;100.00;100448.81;5074748;28;20036;-86
2022/12/30 07:44:28;;;;;;;19.67;10.23;;;;;;;5.22;100.00;100450.41;5074468;28;20028;-83
2022/12/30 07:46:53;;;;;;;27.33;10.43;;;;;;;5.22;100.00;100447.59;5073426;28;20102;-84
2022/12/30 07:49:19;;;;;;;13.77;8.45;;;;;;;5.23;100.00;100454.84;5074330;28;20028;-85
2022/12/30 07:51:46;;;;;;;18.52;9.65;;;;;;;5.18;100.00;100455.41;5073962;28;20058;-84
2022/12/30 07:54:13;;;;;;;20.40;9.75;;;;;;;5.13;100.00;100462.44;5056787;28;20382;-77
2022/12/30 07:56:39;;;;;;;15.30;9.32;;;;;;;5.04;100.00;100470.81;5074325;28;20078;-81
2022/12/30 07:59:05;;;;;;;23.48;9.30;;;;;;;4.92;100.00;100471.56;5074012;28;20415;-84
2022/12/30 08:01:30;;;;;;;17.45;8.73;;;;;;;4.90;100.00;100482.56;5056284;28;20086;-83
2022/12/30 08:03:58;;;;;;;17.00;8.95;;;;;;;4.88;100.00;100473.72;5074225;28;20029;-82
2022/12/30 08:06:24;;;;;;;17.77;8.68;;;;;;;4.89;100.00;100487.44;5074247;28;20032;-86
2022/12/30 08:08:50;;;;;;;16.13;7.43;;;;;;;4.91;100.00;100486.97;5056091;28;20545;-84
2022/12/30 08:11:16;;;;;;;16.88;7.60;;;;;;;4.98;100.00;100494.47;5056284;28;20029;-80
2022/12/30 08:13:43;;;;;;;11.82;6.85;;;;;;;5.02;100.00;100489.47;5056133;28;20058;-83
2022/12/30 08:16:12;;;;;;;11.45;5.95;;;;;;;5.05;100.00;100497.88;5056177;28;20070;-81
2022/12/30 08:18:39;;;;;;;23.20;7.25;;;;;;;5.02;100.00;100490.28;5023647;28;20392;-83
2022/12/30 08:21:11;;;;;;;11.75;6.72;;;;;;;5.13;100.00;100499.25;5039647;28;20546;-84
2022/12/30 08:23:37;;;;;;;12.23;6.60;;;;;;;5.19;100.00;100503.13;5057081;28;20073;-87
2022/12/30 08:26:18;;;;;;;11.43;6.32;;;;;;;5.15;100.00;100504.47;5054703;28;20040;-80
2022/12/30 08:28:44;;;;;;;10.63;6.40;;;;;;;5.30;100.00;100516.97;5074045;28;20031;-80
2022/12/30 08:31:16;;;;;;;11.77;6.22;;;;;;;5.36;100.00;100520.78;5039516;28;20117;-81
2022/12/30 08:33:44;;;;;;;14.00;7.32;;;;;;;5.41;100.00;100522.28;5056605;28;20028;-78
2022/12/30 08:36:12;;;;;;;16.25;7.57;;;;;;;5.46;100.00;100531.00;5055935;28;20423;-83
2022/12/30 08:38:41;;;;;;;13.05;7.50;;;;;;;5.50;100.00;100536.59;5073832;28;20035;-80
2022/12/30 08:41:18;;;;;;;13.10;6.50;;;;;;;5.59;100.00;100537.50;5073708;28;20113;-80
2022/12/30 08:43:45;;;;;;;15.75;6.45;;;;;;;5.63;100.00;100534.53;5043345;28;20033;-79
2022/12/30 08:46:16;;;;;;;16.00;7.00;;;;;;;5.69;100.00;100542.03;5030252;28;20033;-79
2022/12/30 08:48:48;;;;;;;12.95;7.07;;;;;;;5.77;100.00;100545.41;5054031;28;20496;-80
2022/12/30 08:51:14;;;;;;;;;;;;;;;5.85;100.00;100541.09;5062125;28;20111;-82
2022/12/30 08:53:40;;;;;;;18.08;6.72;;;;;;;5.92;100.00;100545.75;5042342;28;20019;-82
2022/12/30 08:56:22;;;;;;;16.60;6.93;;;;;;;6.01;100.00;100540.97;5061296;28;20021;-81
2022/12/30 08:58:49;;;;;;;20.60;7.90;;;;;;;6.07;100.00;100549.72;5053276;28;20033;-77
2022/12/30 09:01:21;;;;;;;15.98;6.85;;;;;;;6.10;100.00;100552.41;5034947;28;20057;-84
2022/12/30 09:04:03;;;;;;;21.17;7.82;;;;;;;6.20;100.00;100562.63;5037381;28;20040;-87
2022/12/30 09:06:30;;;;;;;17.73;7.20;;;;;;;6.28;100.00;100568.06;5051369;28;20049;-77
2022/12/30 09:08:57;;;;;;;13.43;6.35;;;;;;;6.35;100.00;100571.47;5038548;28;20064;-83
2022/12/30 09:11:28;;;;;;;20.27;7.07;;;;;;;6.42;100.00;100574.09;5056834;28;20056;-77
2022/12/30 09:13:56;;;;;;;17.85;6.90;;;;;;;6.46;100.00;100580.44;5039777;28;20490;-80
2022/12/30 09:16:23;;;;;;;12.10;5.30;;;;;;;6.53;100.00;100570.88;5056509;28;20028;-76
2022/12/30 09:18:51;;;;;;;14.93;5.20;;;;;;;6.61;100.00;100572.22;5056471;28;20036;-76
2022/12/30 09:21:17;;;;;;;13.07;5.55;;;;;;;6.63;100.00;100561.97;5038468;28;20548;-80
2022/12/30 09:23:43;;;;;;;9.80;5.45;;;;;;;6.66;100.00;100555.38;5057511;28;20040;-83
2022/12/30 09:26:14;;;;;;;12.57;5.40;;;;;;;6.74;100.00;100558.75;5076644;28;20105;-78
2022/12/30 09:28:39;;;;;;;9.32;5.43;;;;;;;6.76;100.00;100563.97;5038729;28;20123;-80
2022/12/30 09:31:06;;;;;;;10.07;5.43;;;;;;;6.79;100.00;100557.38;5039130;28;20466;-81
2022/12/30 09:33:38;;;;;;;9.45;5.35;;;;;;;6.93;100.00;100569.00;5055377;28;20033;-81
2022/12/30 09:36:08;;;;;;;12.82;5.07;;;;;;;7.02;100.00;100573.97;5037087;28;20028;-83
2022/12/30 09:38:46;;;;;;;9.35;5.53;;;;;;;7.08;100.00;100580.63;5021019;28;20029;-81
2022/12/30 09:43:14;;;;;;;10.38;5.63;;;;;;;7.12;100.00;100581.31;5036659;28;20025;-81
2022/12/30 09:44:45;;;;;;;11.30;6.00;;;;;;;7.16;100.00;100573.44;5053974;28;20037;-80
2022/12/30 09:47:23;;;;;;;10.15;5.45;;;;;;;7.30;100.00;100577.81;5038527;28;20244;-86
2022/12/30 09:50:22;;;;;;;9.93;5.60;;;;;;;7.36;100.00;100578.78;5058865;28;20032;-85
2022/12/30 09:52:53;;;;;;;12.07;6.22;;;;;;;7.43;100.00;100573.63;5055378;28;20033;-82
2022/12/30 09:55:49;;;;;;;8.53;5.90;;;;;;;7.50;100.00;100576.19;5040174;28;20452;-85
2022/12/30 09:58:23;;;;;;;12.60;6.13;;;;;;;7.51;100.00;100571.31;5034964;28;20029;-82
2022/12/30 10:00:50;;;;;;;10.88;5.43;;;;;;;7.60;100.00;100579.09;5038546;28;20025;-83
2022/12/30 10:03:21;;;;;;;7.38;4.78;;;;;;;7.61;100.00;100570.09;5038776;28;20025;-81
2022/12/30 10:06:24;;;;;;;12.50;5.60;;;;;;;7.91;100.00;100579.88;5056104;28;20021;-83
2022/12/30 10:09:21;;;;;;;10.70;4.82;;;;;;;8.05;100.00;100576.47;5038309;28;20032;-80
2022/12/30 10:12:09;;;;;;;9.25;5.10;;;;;;;8.08;100.00;100584.03;5038757;28;20048;-80
2022/12/30 10:15:12;;;;;;;10.43;5.40;;;;;;;8.10;100.00;100584.38;5056200;28;20105;-80
2022/12/30 10:18:06;;;;;;;9.05;5.50;;;;;;;8.11;100.00;100583.13;5055248;28;20402;-80
2022/12/30 10:21:07;;;;;;;11.15;5.35;;;;;;;8.14;100.00;100590.72;5038429;28;20029;-79
2022/12/30 10:24:04;;;;;;;12.35;4.97;;;;;;;7.96;100.00;100557.28;5056015;28;20025;-78
2022/12/30 10:26:42;;;;;;;10.77;5.80;;;;;;;8.22;100.00;100577.00;5055810;28;20029;-78
2022/12/30 10:29:18;;;;;;;10.52;4.40;;;;;;;8.22;100.00;100566.41;5055781;28;20136;-80
2022/12/30 10:31:46;;;;;;;10.38;5.15;;;;;;;8.19;100.00;100552.31;5021666;28;20116;-78
2022/12/30 10:34:16;;;;;;;8.65;5.30;;;;;;;8.22;100.00;100565.59;5038248;28;20078;-79
2022/12/30 10:37:00;;;;;;;10.05;4.60;;;;;;;8.23;100.00;100556.59;5055654;28;20473;-81
2022/12/30 10:39:31;;;;;;;10.38;4.18;;;;;;;8.25;100.00;100556.16;5055341;28;20025;-81
2022/12/30 10:42:17;;;;;;;9.55;5.05;;;;;;;8.27;100.00;100559.28;5056523;28;20025;-79
2022/12/30 10:45:18;;;;;;;7.40;4.25;;;;;;;8.29;100.00;100563.28;5055217;28;20027;-80
2022/12/30 10:48:06;;;;;;;10.55;4.78;;;;;;;8.31;100.00;100545.72;5055429;28;20033;-77
2022/12/30 10:50:39;;;;;;;8.55;4.18;;;;;;;8.33;100.00;100555.38;5055043;28;20032;-76
2022/12/30 10:53:13;;;;;;;9.27;4.93;;;;;;;8.31;100.00;100543.66;5037428;28;20482;-76
2022/12/30 10:56:00;;;;;;;15.82;5.35;;;;;;;8.33;100.00;100543.97;5037293;28;20060;-78
2022/12/30 10:58:48;;;;;;;8.07;4.28;;;;;;;8.33;100.00;100537.50;5054957;28;20029;-76
2022/12/30 11:01:30;;;;;;;11.25;4.85;;;;;;;8.33;100.00;100524.03;5020883;28;20033;-76
2022/12/30 11:03:59;;;;;;;;;;;;;;;8.33;100.00;100529.75;5039370;28;20032;-78
2022/12/30 11:06:32;;;;;;;7.18;4.65;;;;;;;8.36;100.00;100533.72;5040220;28;20355;-79
2022/12/30 11:09:20;;;;;;;7.18;4.57;;;;;;;8.38;100.00;100542.56;5039026;28;20040;-79
2022/12/30 11:14:45;;;;;;;9.40;3.78;;;;;;;8.49;100.00;100534.34;5055456;28;20105;-79
2022/12/30 11:17:13;;;;;;;;;;;;;;;8.65;100.00;100534.06;5055085;28;20470;-77
2022/12/30 11:19:41;;;;;;;7.88;3.13;;;;;;;8.79;100.00;100519.19;5054769;28;19905;-76
2022/12/30 11:22:07;;;;;;;11.35;4.65;;;;;;;8.83;100.00;100519.00;5036475;28;20025;-77
2022/12/30 11:24:34;;;;;;;8.18;4.00;;;;;;;8.84;100.00;100517.75;5053570;28;20458;-75
2022/12/30 11:27:07;;;;;;;7.35;4.05;;;;;;;8.83;100.00;100519.00;5019987;28;20058;-76
2022/12/30 11:29:33;;;;;;;11.18;4.47;;;;;;;8.78;100.00;100514.75;5036514;28;20028;-76
2022/12/30 11:32:09;;;;;;;9.48;4.00;;;;;;;8.79;100.00;100504.13;5020070;28;20074;-78
2022/12/30 11:34:38;;;;;;;6.28;4.10;;;;;;;8.79;100.00;100502.09;5020147;28;20029;-77
2022/12/30 11:37:35;;;;;;;12.50;4.13;;;;;;;8.81;100.00;100507.28;5020077;28;20036;-77
2022/12/30 11:40:30;;;;;;;8.40;4.90;;;;;;;8.81;100.00;100499.53;5046376;28;20052;-78
2022/12/30 11:43:23;;;;;;;13.85;4.60;;;;;;;8.80;100.00;100494.34;5053653;28;20561;-77
2022/12/30 11:46:00;;;;;;;14.85;4.28;;;;;;;8.81;100.00;100493.03;5035710;28;20127;-77
2022/12/30 11:48:30;;;;;;;5.88;3.60;;;;;;;8.80;100.00;100497.19;5052778;28;20566;-78
2022/12/30 11:51:34;;;;;;;9.97;3.90;;;;;;;8.83;100.00;100484.81;5037507;28;20025;-80
2022/12/30 11:54:11;;;;;;;8.20;4.60;;;;;;;8.82;100.00;100488.94;5035170;28;20052;-84
2022/12/30 11:57:01;;;;;;;9.18;4.55;;;;;;;8.81;100.00;100481.66;5052881;28;20104;-77
2022/12/30 11:59:37;;;;;;;12.13;5.35;;;;;;;8.90;100.00;100483.72;5014027;28;20049;-76
2022/12/30 12:02:31;;;;;;;10.40;4.65;;;;;;;8.94;100.00;100487.19;5035903;28;20043;-77
2022/12/30 12:04:58;;;;;;;30.35;6.70;;;;;;;8.94;100.00;100493.69;5025809;28;20186;-79
2022/12/30 12:07:49;;;;;;;6.35;3.60;;;;;;;8.95;100.00;100474.53;5003029;28;20049;-76
2022/12/30 12:10:35;;;;;;;10.45;4.22;;;;;;;8.97;100.00;100472.75;5035274;28;20047;-73
2022/12/30 12:13:07;;;;;;;5.97;2.80;;;;;;;9.00;100.00;100471.78;5035869;28;20029;-77
2022/12/30 12:15:36;;;;;;;6.78;3.53;;;;;;;9.04;100.00;100477.34;5019705;28;20036;-77
2022/12/30 12:18:13;;;;;;;7.72;3.35;;;;;;;9.05;100.00;100478.94;5056524;28;20024;-77
2022/12/30 12:21:20;;;;;;;5.88;3.78;;;;;;;9.06;100.00;100474.78;5049601;28;20020;-78
2022/12/30 12:24:07;;;;;;;5.07;3.60;;;;;;;9.07;100.00;100476.38;5067600;28;20033;-77
2022/12/30 12:26:57;;;;;;;7.72;4.20;;;;;;;9.12;100.00;100479.38;5051386;28;20032;-77
2022/12/30 12:29:44;;;;;;;10.43;3.88;;;;;;;9.11;100.00;100486.34;5066863;28;20074;-77
2022/12/30 12:32:42;;;;;;;6.18;3.22;;;;;;;9.15;100.00;100484.13;5062439;28;20114;-78
2022/12/30 12:35:12;;;;;;;9.27;4.28;;;;;;;9.17;100.00;100486.50;5064722;28;20068;-77
2022/12/30 12:38:02;;;;;;;5.38;3.50;;;;;;;9.15;100.00;100486.19;5064029;28;20033;-77
2022/12/30 12:41:21;;;;;;;7.10;4.13;;;;;;;9.12;100.00;100487.94;5073832;28;20033;-78